TAF PAUN
PAUN 081732Z 0818/0918 06016KT P6SM -SN SKC FM082200 08017KT 5SM -SN BR BKN015 FM090200 08012KT 1 1/2SM -SN BR OVC015 FM091000 11010KT 5SM -SN OVC025=
METAR PAUN
WC PAUN
WS PAUN
WV PAUN